sensor_id;sensor_type;location;lat;lon;timestamp;pressure;altitude;pressure_sealevel;temperature;humidity
38880;BME280;25887;30.194;-97.880;2024-01-16T00:00:53;99081.97;;;-1.08;51.69
38880;BME280;25887;30.194;-97.880;2024-01-16T00:03:19;99092.81;;;-1.09;51.54
38880;BME280;25887;30.194;-97.880;2024-01-16T00:05:46;99103.59;;;-1.12;51.79
38880;BME280;25887;30.194;-97.880;2024-01-16T00:08:12;99096.91;;;-1.12;52.27
38880;BME280;25887;30.194;-97.880;2024-01-16T00:10:38;99111.34;;;-1.09;51.73
38880;BME280;25887;30.194;-97.880;2024-01-16T00:13:04;99121.63;;;-1.06;51.77
38880;BME280;25887;30.194;-97.880;2024-01-16T00:15:31;99120.84;;;-1.05;51.83
38880;BME280;25887;30.194;-97.880;2024-01-16T00:17:57;99126.75;;;-1.04;51.69
38880;BME280;25887;30.194;-97.880;2024-01-16T00:20:23;99132.56;;;-1.05;51.63
38880;BME280;25887;30.194;-97.880;2024-01-16T00:22:51;99135.09;;;-1.05;51.33
38880;BME280;25887;30.194;-97.880;2024-01-16T00:25:25;99141.50;;;-1.10;51.63
38880;BME280;25887;30.194;-97.880;2024-01-16T00:27:51;99155.09;;;-1.08;51.83
38880;BME280;25887;30.194;-97.880;2024-01-16T00:30:18;99165.94;;;-1.09;51.62
38880;BME280;25887;30.194;-97.880;2024-01-16T00:32:44;99177.59;;;-1.12;51.49
38880;BME280;25887;30.194;-97.880;2024-01-16T00:35:11;99188.47;;;-1.13;51.56
38880;BME280;25887;30.194;-97.880;2024-01-16T00:37:37;99196.72;;;-1.15;51.66
38880;BME280;25887;30.194;-97.880;2024-01-16T00:40:07;99209.41;;;-1.14;51.35
38880;BME280;25887;30.194;-97.880;2024-01-16T00:42:35;99213.38;;;-1.17;51.72
38880;BME280;25887;30.194;-97.880;2024-01-16T00:45:01;99217.31;;;-1.22;51.02
38880;BME280;25887;30.194;-97.880;2024-01-16T00:47:27;99228.84;;;-1.26;51.78
38880;BME280;25887;30.194;-97.880;2024-01-16T00:49:53;99233.00;;;-1.26;51.32
38880;BME280;25887;30.194;-97.880;2024-01-16T00:52:19;99244.75;;;-1.27;51.23
38880;BME280;25887;30.194;-97.880;2024-01-16T00:54:46;99255.03;;;-1.24;51.19
38880;BME280;25887;30.194;-97.880;2024-01-16T00:57:12;99265.00;;;-1.25;51.48
38880;BME280;25887;30.194;-97.880;2024-01-16T00:59:41;99268.31;;;-1.26;51.08
38880;BME280;25887;30.194;-97.880;2024-01-16T01:02:10;99277.59;;;-1.25;51.48
38880;BME280;25887;30.194;-97.880;2024-01-16T01:04:37;99277.34;;;-1.30;51.50
38880;BME280;25887;30.194;-97.880;2024-01-16T01:07:04;99287.44;;;-1.30;51.34
38880;BME280;25887;30.194;-97.880;2024-01-16T01:09:32;99306.91;;;-1.27;51.18
38880;BME280;25887;30.194;-97.880;2024-01-16T01:11:58;99310.97;;;-1.29;51.30
38880;BME280;25887;30.194;-97.880;2024-01-16T01:14:25;99314.38;;;-1.29;51.14
38880;BME280;25887;30.194;-97.880;2024-01-16T01:16:52;99315.94;;;-1.31;51.53
38880;BME280;25887;30.194;-97.880;2024-01-16T01:19:18;99313.03;;;-1.37;51.29
38880;BME280;25887;30.194;-97.880;2024-01-16T01:21:44;99320.50;;;-1.38;50.95
38880;BME280;25887;30.194;-97.880;2024-01-16T01:24:11;99321.16;;;-1.41;50.84
38880;BME280;25887;30.194;-97.880;2024-01-16T01:26:37;99322.03;;;-1.41;51.31
38880;BME280;25887;30.194;-97.880;2024-01-16T01:29:03;99326.19;;;-1.41;51.05
38880;BME280;25887;30.194;-97.880;2024-01-16T01:31:29;99323.59;;;-1.43;51.29
38880;BME280;25887;30.194;-97.880;2024-01-16T01:33:55;99331.25;;;-1.41;51.25
38880;BME280;25887;30.194;-97.880;2024-01-16T01:36:21;99333.03;;;-1.40;51.05
38880;BME280;25887;30.194;-97.880;2024-01-16T01:38:47;99347.25;;;-1.41;51.03
38880;BME280;25887;30.194;-97.880;2024-01-16T01:41:14;99350.75;;;-1.38;51.22
38880;BME280;25887;30.194;-97.880;2024-01-16T01:43:40;99348.00;;;-1.42;50.86
38880;BME280;25887;30.194;-97.880;2024-01-16T01:46:19;99350.44;;;-1.43;51.02
38880;BME280;25887;30.194;-97.880;2024-01-16T01:48:48;99353.66;;;-1.46;50.68
38880;BME280;25887;30.194;-97.880;2024-01-16T01:51:18;99349.19;;;-1.50;50.62
38880;BME280;25887;30.194;-97.880;2024-01-16T01:53:45;99357.81;;;-1.46;50.59
38880;BME280;25887;30.194;-97.880;2024-01-16T01:56:17;99361.00;;;-1.49;50.45
38880;BME280;25887;30.194;-97.880;2024-01-16T01:58:44;99372.75;;;-1.49;50.88
38880;BME280;25887;30.194;-97.880;2024-01-16T02:01:13;99372.56;;;-1.52;50.72
38880;BME280;25887;30.194;-97.880;2024-01-16T02:03:44;99380.91;;;-1.53;50.41
38880;BME280;25887;30.194;-97.880;2024-01-16T02:06:13;99389.00;;;-1.57;50.40
38880;BME280;25887;30.194;-97.880;2024-01-16T02:08:42;99398.91;;;-1.60;50.26
38880;BME280;25887;30.194;-97.880;2024-01-16T02:11:09;99396.97;;;-1.64;50.45
38880;BME280;25887;30.194;-97.880;2024-01-16T02:13:36;99413.81;;;-1.63;50.56
38880;BME280;25887;30.194;-97.880;2024-01-16T02:16:03;99428.94;;;-1.63;50.27
38880;BME280;25887;30.194;-97.880;2024-01-16T02:18:29;99426.41;;;-1.63;50.42
38880;BME280;25887;30.194;-97.880;2024-01-16T02:21:05;99432.44;;;-1.61;50.41
38880;BME280;25887;30.194;-97.880;2024-01-16T02:23:33;99429.72;;;-1.64;50.22
38880;BME280;25887;30.194;-97.880;2024-01-16T02:25:59;99444.72;;;-1.66;49.65
38880;BME280;25887;30.194;-97.880;2024-01-16T02:28:25;99439.59;;;-1.67;49.93
38880;BME280;25887;30.194;-97.880;2024-01-16T02:30:52;99447.72;;;-1.72;49.71
38880;BME280;25887;30.194;-97.880;2024-01-16T02:33:18;99445.88;;;-1.74;49.94
38880;BME280;25887;30.194;-97.880;2024-01-16T02:35:44;99450.03;;;-1.75;49.42
38880;BME280;25887;30.194;-97.880;2024-01-16T02:38:11;99450.63;;;-1.79;49.79
38880;BME280;25887;30.194;-97.880;2024-01-16T02:40:37;99450.50;;;-1.80;49.69
38880;BME280;25887;30.194;-97.880;2024-01-16T02:43:03;99452.94;;;-1.82;49.81
38880;BME280;25887;30.194;-97.880;2024-01-16T02:45:29;99452.75;;;-1.85;49.50
38880;BME280;25887;30.194;-97.880;2024-01-16T02:47:55;99456.22;;;-1.83;49.68
38880;BME280;25887;30.194;-97.880;2024-01-16T02:50:22;99452.84;;;-1.83;50.01
38880;BME280;25887;30.194;-97.880;2024-01-16T02:52:50;99457.78;;;-1.85;49.58
38880;BME280;25887;30.194;-97.880;2024-01-16T02:55:17;99463.78;;;-1.83;49.65
38880;BME280;25887;30.194;-97.880;2024-01-16T02:57:43;99468.72;;;-1.84;49.54
38880;BME280;25887;30.194;-97.880;2024-01-16T03:00:09;99477.94;;;-1.85;49.54
38880;BME280;25887;30.194;-97.880;2024-01-16T03:02:36;99477.06;;;-1.85;49.50
38880;BME280;25887;30.194;-97.880;2024-01-16T03:05:04;99480.34;;;-1.86;49.34
38880;BME280;25887;30.194;-97.880;2024-01-16T03:07:34;99487.78;;;-1.88;49.26
38880;BME280;25887;30.194;-97.880;2024-01-16T03:10:00;99490.00;;;-1.92;49.31
38880;BME280;25887;30.194;-97.880;2024-01-16T03:12:26;99492.72;;;-1.89;49.28
38880;BME280;25887;30.194;-97.880;2024-01-16T03:14:53;99491.66;;;-1.93;49.35
38880;BME280;25887;30.194;-97.880;2024-01-16T03:17:19;99490.00;;;-1.92;49.20
38880;BME280;25887;30.194;-97.880;2024-01-16T03:19:45;99490.88;;;-1.92;49.70
38880;BME280;25887;30.194;-97.880;2024-01-16T03:22:12;99496.88;;;-1.90;49.01
38880;BME280;25887;30.194;-97.880;2024-01-16T03:24:38;99499.41;;;-1.90;49.49
38880;BME280;25887;30.194;-97.880;2024-01-16T03:27:04;99500.50;;;-1.86;49.31
38880;BME280;25887;30.194;-97.880;2024-01-16T03:29:30;99508.06;;;-1.86;49.40
38880;BME280;25887;30.194;-97.880;2024-01-16T03:31:59;99519.00;;;-1.86;48.98
38880;BME280;25887;30.194;-97.880;2024-01-16T03:34:25;99527.44;;;-1.85;49.13
38880;BME280;25887;30.194;-97.880;2024-01-16T03:36:51;99531.59;;;-1.86;49.16
38880;BME280;25887;30.194;-97.880;2024-01-16T03:39:17;99520.53;;;-1.88;48.89
38880;BME280;25887;30.194;-97.880;2024-01-16T03:41:45;99529.72;;;-1.88;49.09
38880;BME280;25887;30.194;-97.880;2024-01-16T03:44:11;99532.13;;;-1.90;49.26
38880;BME280;25887;30.194;-97.880;2024-01-16T03:46:37;99540.56;;;-1.89;48.97
38880;BME280;25887;30.194;-97.880;2024-01-16T03:49:04;99536.50;;;-1.87;49.06
38880;BME280;25887;30.194;-97.880;2024-01-16T03:51:30;99539.03;;;-1.87;48.88
38880;BME280;25887;30.194;-97.880;2024-01-16T03:53:56;99541.44;;;-1.89;48.73
38880;BME280;25887;30.194;-97.880;2024-01-16T03:56:22;99548.91;;;-1.90;48.75
38880;BME280;25887;30.194;-97.880;2024-01-16T03:58:48;99551.31;;;-1.92;48.64
38880;BME280;25887;30.194;-97.880;2024-01-16T04:01:15;99552.97;;;-1.92;48.51
38880;BME280;25887;30.194;-97.880;2024-01-16T04:03:44;99551.31;;;-1.92;48.95
38880;BME280;25887;30.194;-97.880;2024-01-16T04:06:17;99546.28;;;-1.92;48.55
38880;BME280;25887;30.194;-97.880;2024-01-16T04:08:44;99542.78;;;-1.94;48.64
38880;BME280;25887;30.194;-97.880;2024-01-16T04:11:14;99551.00;;;-1.97;48.85
38880;BME280;25887;30.194;-97.880;2024-01-16T04:13:41;99557.69;;;-1.97;48.52
38880;BME280;25887;30.194;-97.880;2024-01-16T04:16:07;99570.16;;;-1.99;48.58
38880;BME280;25887;30.194;-97.880;2024-01-16T04:18:36;99572.69;;;-1.99;48.41
38880;BME280;25887;30.194;-97.880;2024-01-16T04:21:03;99573.47;;;-2.00;48.50
38880;BME280;25887;30.194;-97.880;2024-01-16T04:23:30;99582.66;;;-2.00;48.29
38880;BME280;25887;30.194;-97.880;2024-01-16T04:25:56;99575.00;;;-2.02;48.32
38880;BME280;25887;30.194;-97.880;2024-01-16T04:28:22;99580.69;;;-2.04;48.12
38880;BME280;25887;30.194;-97.880;2024-01-16T04:30:49;99581.56;;;-2.04;48.25
38880;BME280;25887;30.194;-97.880;2024-01-16T04:33:15;99584.84;;;-2.05;47.89
38880;BME280;25887;30.194;-97.880;2024-01-16T04:35:44;99595.78;;;-2.04;47.79
38880;BME280;25887;30.194;-97.880;2024-01-16T04:38:10;99594.06;;;-2.05;47.54
38880;BME280;25887;30.194;-97.880;2024-01-16T04:40:37;99601.59;;;-2.05;47.48
38880;BME280;25887;30.194;-97.880;2024-01-16T04:43:03;99601.31;;;-2.10;47.17
38880;BME280;25887;30.194;-97.880;2024-01-16T04:45:32;99601.31;;;-2.10;47.13
38880;BME280;25887;30.194;-97.880;2024-01-16T04:47:59;99612.97;;;-2.10;46.79
38880;BME280;25887;30.194;-97.880;2024-01-16T04:50:25;99604.25;;;-2.15;46.47
38880;BME280;25887;30.194;-97.880;2024-01-16T04:53:00;99611.81;;;-2.15;46.64
38880;BME280;25887;30.194;-97.880;2024-01-16T04:55:27;99628.66;;;-2.14;46.63
38880;BME280;25887;30.194;-97.880;2024-01-16T04:57:57;99622.84;;;-2.13;46.49
38880;BME280;25887;30.194;-97.880;2024-01-16T05:00:25;99623.53;;;-2.16;46.53
38880;BME280;25887;30.194;-97.880;2024-01-16T05:02:53;99633.69;;;-2.14;45.72
38880;BME280;25887;30.194;-97.880;2024-01-16T05:05:20;99628.47;;;-2.17;45.79
38880;BME280;25887;30.194;-97.880;2024-01-16T05:07:46;99624.16;;;-2.18;45.46
38880;BME280;25887;30.194;-97.880;2024-01-16T05:10:13;99625.16;;;-2.16;45.20
38880;BME280;25887;30.194;-97.880;2024-01-16T05:12:39;99633.59;;;-2.16;45.95
38880;BME280;25887;30.194;-97.880;2024-01-16T05:15:06;99631.84;;;-2.17;45.68
38880;BME280;25887;30.194;-97.880;2024-01-16T05:17:33;99637.97;;;-2.13;45.34
38880;BME280;25887;30.194;-97.880;2024-01-16T05:19:59;99638.94;;;-2.11;45.53
38880;BME280;25887;30.194;-97.880;2024-01-16T05:22:26;99630.50;;;-2.12;45.64
38880;BME280;25887;30.194;-97.880;2024-01-16T05:24:52;99632.06;;;-2.14;45.37
38880;BME280;25887;30.194;-97.880;2024-01-16T05:27:18;99641.25;;;-2.14;46.01
38880;BME280;25887;30.194;-97.880;2024-01-16T05:29:44;99636.97;;;-2.15;45.46
38880;BME280;25887;30.194;-97.880;2024-01-16T05:32:11;99636.00;;;-2.17;44.84
38880;BME280;25887;30.194;-97.880;2024-01-16T05:34:39;99630.75;;;-2.20;44.76
38880;BME280;25887;30.194;-97.880;2024-01-16T05:37:06;99645.75;;;-2.22;45.11
38880;BME280;25887;30.194;-97.880;2024-01-16T05:39:33;99650.00;;;-2.21;44.58
38880;BME280;25887;30.194;-97.880;2024-01-16T05:41:59;99645.75;;;-2.22;44.02
38880;BME280;25887;30.194;-97.880;2024-01-16T05:44:25;99644.09;;;-2.21;43.62
38880;BME280;25887;30.194;-97.880;2024-01-16T05:46:52;99641.16;;;-2.28;43.76
38880;BME280;25887;30.194;-97.880;2024-01-16T05:49:18;99640.16;;;-2.30;43.65
38880;BME280;25887;30.194;-97.880;2024-01-16T05:51:50;99636.13;;;-2.28;43.41
38880;BME280;25887;30.194;-97.880;2024-01-16T05:54:17;99644.44;;;-2.29;43.42
38880;BME280;25887;30.194;-97.880;2024-01-16T05:56:43;99637.66;;;-2.30;43.45
38880;BME280;25887;30.194;-97.880;2024-01-16T05:59:09;99645.22;;;-2.30;42.88
38880;BME280;25887;30.194;-97.880;2024-01-16T06:01:35;99645.75;;;-2.34;42.30
38880;BME280;25887;30.194;-97.880;2024-01-16T06:04:03;99639.63;;;-2.37;42.37
38880;BME280;25887;30.194;-97.880;2024-01-16T06:06:30;99642.16;;;-2.37;42.33
38880;BME280;25887;30.194;-97.880;2024-01-16T06:08:56;99647.94;;;-2.38;42.43
38880;BME280;25887;30.194;-97.880;2024-01-16T06:11:33;99643.88;;;-2.36;42.33
38880;BME280;25887;30.194;-97.880;2024-01-16T06:14:00;99639.28;;;-2.42;41.87
38880;BME280;25887;30.194;-97.880;2024-01-16T06:16:27;99651.66;;;-2.45;41.32
38880;BME280;25887;30.194;-97.880;2024-01-16T06:18:53;99656.69;;;-2.45;40.94
38880;BME280;25887;30.194;-97.880;2024-01-16T06:21:19;99665.69;;;-2.48;40.77
38880;BME280;25887;30.194;-97.880;2024-01-16T06:23:46;99662.06;;;-2.52;40.82
38880;BME280;25887;30.194;-97.880;2024-01-16T06:26:12;99673.97;;;-2.49;40.96
38880;BME280;25887;30.194;-97.880;2024-01-16T06:28:38;99669.59;;;-2.52;41.10
38880;BME280;25887;30.194;-97.880;2024-01-16T06:31:08;99674.97;;;-2.47;41.42
38880;BME280;25887;30.194;-97.880;2024-01-16T06:33:35;99682.63;;;-2.46;40.89
38880;BME280;25887;30.194;-97.880;2024-01-16T06:36:02;99676.63;;;-2.48;40.87
38880;BME280;25887;30.194;-97.880;2024-01-16T06:38:30;99676.50;;;-2.49;40.82
38880;BME280;25887;30.194;-97.880;2024-01-16T06:40:57;99687.31;;;-2.50;40.88
38880;BME280;25887;30.194;-97.880;2024-01-16T06:43:23;99664.47;;;-2.54;40.93
38880;BME280;25887;30.194;-97.880;2024-01-16T06:45:50;99671.91;;;-2.55;40.44
38880;BME280;25887;30.194;-97.880;2024-01-16T06:48:19;99670.03;;;-2.58;40.29
38880;BME280;25887;30.194;-97.880;2024-01-16T06:50:45;99670.78;;;-2.59;40.71
38880;BME280;25887;30.194;-97.880;2024-01-16T06:53:12;99674.84;;;-2.61;40.13
38880;BME280;25887;30.194;-97.880;2024-01-16T06:55:38;99685.78;;;-2.60;40.37
38880;BME280;25887;30.194;-97.880;2024-01-16T06:58:05;99670.25;;;-2.66;40.15
38880;BME280;25887;30.194;-97.880;2024-01-16T07:00:31;99685.34;;;-2.66;39.83
38880;BME280;25887;30.194;-97.880;2024-01-16T07:02:57;99674.97;;;-2.71;40.11
38880;BME280;25887;30.194;-97.880;2024-01-16T07:05:23;99694.22;;;-2.71;39.30
38880;BME280;25887;30.194;-97.880;2024-01-16T07:07:50;99682.72;;;-2.79;38.90
38880;BME280;25887;30.194;-97.880;2024-01-16T07:10:16;99698.53;;;-2.81;39.01
38880;BME280;25887;30.194;-97.880;2024-01-16T07:12:48;99718.34;;;-2.85;38.79
38880;BME280;25887;30.194;-97.880;2024-01-16T07:15:15;99723.38;;;-2.85;39.03
38880;BME280;25887;30.194;-97.880;2024-01-16T07:17:41;99724.75;;;-2.89;38.99
38880;BME280;25887;30.194;-97.880;2024-01-16T07:20:08;99717.88;;;-2.91;38.87
38880;BME280;25887;30.194;-97.880;2024-01-16T07:22:34;99728.59;;;-2.94;38.80
38880;BME280;25887;30.194;-97.880;2024-01-16T07:25:00;99729.22;;;-2.96;38.14
38880;BME280;25887;30.194;-97.880;2024-01-16T07:27:26;99738.41;;;-2.97;38.26
38880;BME280;25887;30.194;-97.880;2024-01-16T07:29:53;99738.19;;;-3.00;38.24
38880;BME280;25887;30.194;-97.880;2024-01-16T07:32:22;99737.19;;;-3.02;38.72
38880;BME280;25887;30.194;-97.880;2024-01-16T07:34:48;99736.19;;;-3.04;37.98
38880;BME280;25887;30.194;-97.880;2024-01-16T07:37:14;99730.44;;;-3.03;38.04
38880;BME280;25887;30.194;-97.880;2024-01-16T07:39:41;99725.41;;;-3.03;38.78
38880;BME280;25887;30.194;-97.880;2024-01-16T07:42:07;99729.66;;;-3.02;39.16
38880;BME280;25887;30.194;-97.880;2024-01-16T07:44:33;99739.59;;;-3.03;38.71
38880;BME280;25887;30.194;-97.880;2024-01-16T07:47:00;99727.66;;;-3.06;38.14
38880;BME280;25887;30.194;-97.880;2024-01-16T07:49:26;99729.84;;;-3.11;38.22
38880;BME280;25887;30.194;-97.880;2024-01-16T07:51:52;99728.06;;;-3.12;38.27
38880;BME280;25887;30.194;-97.880;2024-01-16T07:54:19;99726.47;;;-3.11;38.34
38880;BME280;25887;30.194;-97.880;2024-01-16T07:57:10;99723.94;;;-3.11;38.25
38880;BME280;25887;30.194;-97.880;2024-01-16T07:59:37;99735.28;;;-3.16;38.07
38880;BME280;25887;30.194;-97.880;2024-01-16T08:02:04;99729.50;;;-3.15;37.84
38880;BME280;25887;30.194;-97.880;2024-01-16T08:04:31;99722.63;;;-3.18;37.91
38880;BME280;25887;30.194;-97.880;2024-01-16T08:06:59;99730.16;;;-3.18;38.19
38880;BME280;25887;30.194;-97.880;2024-01-16T08:09:25;99720.63;;;-3.22;37.46
38880;BME280;25887;30.194;-97.880;2024-01-16T08:11:51;99727.81;;;-3.26;37.63
38880;BME280;25887;30.194;-97.880;2024-01-16T08:14:17;99726.69;;;-3.30;37.66
38880;BME280;25887;30.194;-97.880;2024-01-16T08:17:11;99734.34;;;-3.28;37.56
38880;BME280;25887;30.194;-97.880;2024-01-16T08:19:37;99736.09;;;-3.27;38.26
38880;BME280;25887;30.194;-97.880;2024-01-16T08:22:04;99742.44;;;-3.32;37.88
38880;BME280;25887;30.194;-97.880;2024-01-16T08:24:31;99752.47;;;-3.32;37.37
38880;BME280;25887;30.194;-97.880;2024-01-16T08:26:57;99758.13;;;-3.35;38.09
38880;BME280;25887;30.194;-97.880;2024-01-16T08:29:24;99778.97;;;-3.36;38.31
38880;BME280;25887;30.194;-97.880;2024-01-16T08:31:51;99794.06;;;-3.36;38.37
38880;BME280;25887;30.194;-97.880;2024-01-16T08:34:18;99787.66;;;-3.32;38.29
38880;BME280;25887;30.194;-97.880;2024-01-16T08:36:44;99795.31;;;-3.31;38.90
38880;BME280;25887;30.194;-97.880;2024-01-16T08:39:11;99787.66;;;-3.32;38.11
38880;BME280;25887;30.194;-97.880;2024-01-16T08:41:37;99779.13;;;-3.34;38.14
38880;BME280;25887;30.194;-97.880;2024-01-16T08:44:03;99770.81;;;-3.33;38.29
38880;BME280;25887;30.194;-97.880;2024-01-16T08:46:29;99776.63;;;-3.34;38.70
38880;BME280;25887;30.194;-97.880;2024-01-16T08:48:57;99775.38;;;-3.40;38.26
38880;BME280;25887;30.194;-97.880;2024-01-16T08:51:23;99794.50;;;-3.42;37.30
38880;BME280;25887;30.194;-97.880;2024-01-16T08:53:49;99802.31;;;-3.49;37.59
38880;BME280;25887;30.194;-97.880;2024-01-16T08:56:15;99803.19;;;-3.48;37.74
38880;BME280;25887;30.194;-97.880;2024-01-16T08:58:43;99802.91;;;-3.51;37.67
38880;BME280;25887;30.194;-97.880;2024-01-16T09:01:09;99796.91;;;-3.53;37.99
38880;BME280;25887;30.194;-97.880;2024-01-16T09:03:36;99809.47;;;-3.53;37.62
38880;BME280;25887;30.194;-97.880;2024-01-16T09:06:03;99816.13;;;-3.54;38.21
38880;BME280;25887;30.194;-97.880;2024-01-16T09:08:43;99796.91;;;-3.53;37.68
38880;BME280;25887;30.194;-97.880;2024-01-16T09:11:10;99802.59;;;-3.56;38.30
38880;BME280;25887;30.194;-97.880;2024-01-16T09:13:37;99801.59;;;-3.58;37.84
38880;BME280;25887;30.194;-97.880;2024-01-16T09:16:04;99792.53;;;-3.56;38.21
38880;BME280;25887;30.194;-97.880;2024-01-16T09:18:31;99795.81;;;-3.57;38.40
38880;BME280;25887;30.194;-97.880;2024-01-16T09:20:58;99798.56;;;-3.54;37.90
38880;BME280;25887;30.194;-97.880;2024-01-16T09:23:24;99798.81;;;-3.61;37.59
38880;BME280;25887;30.194;-97.880;2024-01-16T09:25:50;99806.34;;;-3.61;38.11
38880;BME280;25887;30.194;-97.880;2024-01-16T09:28:17;99795.44;;;-3.61;37.77
38880;BME280;25887;30.194;-97.880;2024-01-16T09:30:45;99797.56;;;-3.56;38.15
38880;BME280;25887;30.194;-97.880;2024-01-16T09:33:12;99794.28;;;-3.55;38.06
38880;BME280;25887;30.194;-97.880;2024-01-16T09:35:39;99788.03;;;-3.60;38.16
38880;BME280;25887;30.194;-97.880;2024-01-16T09:38:05;99803.84;;;-3.61;38.22
38880;BME280;25887;30.194;-97.880;2024-01-16T09:40:34;99808.66;;;-3.64;37.96
38880;BME280;25887;30.194;-97.880;2024-01-16T09:43:01;99820.19;;;-3.66;37.71
38880;BME280;25887;30.194;-97.880;2024-01-16T09:45:29;99811.66;;;-3.68;38.21
38880;BME280;25887;30.194;-97.880;2024-01-16T09:47:59;99820.94;;;-3.67;38.24
38880;BME280;25887;30.194;-97.880;2024-01-16T09:50:27;99827.59;;;-3.68;38.69
38880;BME280;25887;30.194;-97.880;2024-01-16T09:52:53;99841.78;;;-3.68;38.12
38880;BME280;25887;30.194;-97.880;2024-01-16T09:55:20;99822.09;;;-3.74;37.75
38880;BME280;25887;30.194;-97.880;2024-01-16T09:57:53;99837.03;;;-3.75;37.99
38880;BME280;25887;30.194;-97.880;2024-01-16T10:00:20;99835.81;;;-3.80;37.99
38880;BME280;25887;30.194;-97.880;2024-01-16T10:02:49;99841.22;;;-3.86;38.12
38880;BME280;25887;30.194;-97.880;2024-01-16T10:05:16;99846.88;;;-3.88;38.55
38880;BME280;25887;30.194;-97.880;2024-01-16T10:07:43;99866.31;;;-3.86;38.68
38880;BME280;25887;30.194;-97.880;2024-01-16T10:10:13;99863.56;;;-3.89;38.45
38880;BME280;25887;30.194;-97.880;2024-01-16T10:12:39;99865.19;;;-3.89;38.37
38880;BME280;25887;30.194;-97.880;2024-01-16T10:15:07;99863.56;;;-3.89;38.55
38880;BME280;25887;30.194;-97.880;2024-01-16T10:17:38;99860.16;;;-3.89;38.51
38880;BME280;25887;30.194;-97.880;2024-01-16T10:20:05;99851.75;;;-3.90;38.82
38880;BME280;25887;30.194;-97.880;2024-01-16T10:22:31;99843.34;;;-3.90;38.69
38880;BME280;25887;30.194;-97.880;2024-01-16T10:25:07;99849.13;;;-3.92;38.45
38880;BME280;25887;30.194;-97.880;2024-01-16T10:27:39;99856.44;;;-3.95;38.52
38880;BME280;25887;30.194;-97.880;2024-01-16T10:30:06;99851.03;;;-3.99;38.37
38880;BME280;25887;30.194;-97.880;2024-01-16T10:32:41;99854.53;;;-3.97;38.97
38880;BME280;25887;30.194;-97.880;2024-01-16T10:35:12;99848.41;;;-4.01;37.79
38880;BME280;25887;30.194;-97.880;2024-01-16T10:37:46;99851.41;;;-4.05;38.77
38880;BME280;25887;30.194;-97.880;2024-01-16T10:40:24;99850.94;;;-4.11;38.15
38880;BME280;25887;30.194;-97.880;2024-01-16T10:43:03;99861.47;;;-4.15;38.38
38880;BME280;25887;30.194;-97.880;2024-01-16T10:45:30;99841.03;;;-4.19;38.25
38880;BME280;25887;30.194;-97.880;2024-01-16T10:48:06;99829.72;;;-4.25;38.14
38880;BME280;25887;30.194;-97.880;2024-01-16T10:50:35;99822.69;;;-4.29;37.71
38880;BME280;25887;30.194;-97.880;2024-01-16T10:53:06;99810.78;;;-4.31;38.65
38880;BME280;25887;30.194;-97.880;2024-01-16T10:55:59;99820.06;;;-4.30;37.88
38880;BME280;25887;30.194;-97.880;2024-01-16T10:58:25;99831.75;;;-4.31;38.73
38880;BME280;25887;30.194;-97.880;2024-01-16T11:01:01;99828.59;;;-4.28;38.18
38880;BME280;25887;30.194;-97.880;2024-01-16T11:03:40;99831.84;;;-4.29;39.06
38880;BME280;25887;30.194;-97.880;2024-01-16T11:06:09;99829.22;;;-4.31;38.31
38880;BME280;25887;30.194;-97.880;2024-01-16T11:08:37;99830.75;;;-4.33;38.74
38880;BME280;25887;30.194;-97.880;2024-01-16T11:11:34;99836.88;;;-4.29;38.45
38880;BME280;25887;30.194;-97.880;2024-01-16T11:14:03;99828.34;;;-4.31;38.26
38880;BME280;25887;30.194;-97.880;2024-01-16T11:16:32;99837.88;;;-4.37;38.41
38880;BME280;25887;30.194;-97.880;2024-01-16T11:18:59;99836.88;;;-4.39;38.61
38880;BME280;25887;30.194;-97.880;2024-01-16T11:21:26;99850.94;;;-4.41;38.50
38880;BME280;25887;30.194;-97.880;2024-01-16T11:23:52;99865.25;;;-4.40;38.07
38880;BME280;25887;30.194;-97.880;2024-01-16T11:28:55;99885.31;;;-4.40;38.73
38880;BME280;25887;30.194;-97.880;2024-01-16T11:31:36;99884.31;;;-4.42;38.27
38880;BME280;25887;30.194;-97.880;2024-01-16T11:34:11;99874.00;;;-4.45;38.12
38880;BME280;25887;30.194;-97.880;2024-01-16T11:36:51;99872.13;;;-4.48;38.60
38880;BME280;25887;30.194;-97.880;2024-01-16T11:39:25;99872.00;;;-4.50;38.46
38880;BME280;25887;30.194;-97.880;2024-01-16T11:47:21;99854.94;;;-4.54;38.29
38880;BME280;25887;30.194;-97.880;2024-01-16T11:49:50;99874.88;;;-4.55;38.62
38880;BME280;25887;30.194;-97.880;2024-01-16T11:52:42;99869.88;;;-4.55;38.06
38880;BME280;25887;30.194;-97.880;2024-01-16T11:55:27;99872.25;;;-4.57;38.64
38880;BME280;25887;30.194;-97.880;2024-01-16T12:00:32;99896.44;;;-4.57;38.64
38880;BME280;25887;30.194;-97.880;2024-01-16T12:03:02;99895.69;;;-4.56;38.66
38880;BME280;25887;30.194;-97.880;2024-01-16T12:05:31;99897.44;;;-4.55;38.44
38880;BME280;25887;30.194;-97.880;2024-01-16T12:07:58;99896.56;;;-4.56;38.39
38880;BME280;25887;30.194;-97.880;2024-01-16T12:10:25;99897.31;;;-4.57;38.54
38880;BME280;25887;30.194;-97.880;2024-01-16T12:12:59;99912.25;;;-4.58;38.64
38880;BME280;25887;30.194;-97.880;2024-01-16T12:15:26;99910.63;;;-4.58;37.99
38880;BME280;25887;30.194;-97.880;2024-01-16T12:17:59;99909.75;;;-4.58;38.13
38880;BME280;25887;30.194;-97.880;2024-01-16T12:20:36;99922.53;;;-4.55;38.56
38880;BME280;25887;30.194;-97.880;2024-01-16T12:25:31;99921.53;;;-4.57;38.56
38880;BME280;25887;30.194;-97.880;2024-01-16T12:28:02;99926.41;;;-4.59;38.46
38880;BME280;25887;30.194;-97.880;2024-01-16T12:30:36;99926.41;;;-4.59;38.73
38880;BME280;25887;30.194;-97.880;2024-01-16T12:33:13;99936.16;;;-4.62;38.26
38880;BME280;25887;30.194;-97.880;2024-01-16T12:35:41;99921.47;;;-4.67;38.23
38880;BME280;25887;30.194;-97.880;2024-01-16T12:38:09;99927.88;;;-4.71;38.54
38880;BME280;25887;30.194;-97.880;2024-01-16T12:40:37;99936.53;;;-4.67;38.59
38880;BME280;25887;30.194;-97.880;2024-01-16T12:43:06;99948.06;;;-4.69;38.60
38880;BME280;25887;30.194;-97.880;2024-01-16T12:45:33;99952.94;;;-4.71;38.67
38880;BME280;25887;30.194;-97.880;2024-01-16T12:48:01;99963.22;;;-4.68;38.76
38880;BME280;25887;30.194;-97.880;2024-01-16T12:50:30;99952.81;;;-4.72;38.87
38880;BME280;25887;30.194;-97.880;2024-01-16T12:55:35;99959.72;;;-4.70;38.51
38880;BME280;25887;30.194;-97.880;2024-01-16T12:58:23;99968.13;;;-4.69;38.44
38880;BME280;25887;30.194;-97.880;2024-01-16T13:00:51;99981.41;;;-4.70;38.49